sensor_id;sensor_type;location;lat;lon;timestamp;P1;durP1;ratioP1;P2;durP2;ratioP2
53835;SDS011;39737;43.334;21.936;2022-12-17T00:01:25;41.97;;;19.55;;
53835;SDS011;39737;43.334;21.936;2022-12-17T00:04:29;36.40;;;17.90;;
53835;SDS011;39737;43.334;21.936;2022-12-17T00:07:35;9.20;;;4.13;;
53835;SDS011;39737;43.334;21.936;2022-12-17T00:10:40;31.33;;;15.05;;
53835;SDS011;39737;43.334;21.936;2022-12-17T00:13:45;26.58;;;11.73;;
53835;SDS011;39737;43.334;21.936;2022-12-17T00:16:51;25.30;;;11.18;;
53835;SDS011;39737;43.334;21.936;2022-12-17T00:20:02;17.02;;;9.55;;
53835;SDS011;39737;43.334;21.936;2022-12-17T00:23:15;16.73;;;8.52;;
53835;SDS011;39737;43.334;21.936;2022-12-17T00:26:20;12.25;;;7.70;;
53835;SDS011;39737;43.334;21.936;2022-12-17T00:29:25;41.78;;;19.42;;
53835;SDS011;39737;43.334;21.936;2022-12-17T00:32:29;95.50;;;39.88;;
53835;SDS011;39737;43.334;21.936;2022-12-17T00:35:36;27.85;;;12.98;;
53835;SDS011;39737;43.334;21.936;2022-12-17T00:38:41;51.90;;;22.08;;
53835;SDS011;39737;43.334;21.936;2022-12-17T00:41:49;48.50;;;22.30;;
53835;SDS011;39737;43.334;21.936;2022-12-17T00:44:54;43.22;;;21.40;;
53835;SDS011;39737;43.334;21.936;2022-12-17T00:48:00;58.22;;;23.60;;
53835;SDS011;39737;43.334;21.936;2022-12-17T00:51:04;54.53;;;24.02;;
53835;SDS011;39737;43.334;21.936;2022-12-17T00:54:10;48.90;;;22.55;;
53835;SDS011;39737;43.334;21.936;2022-12-17T00:57:15;49.33;;;23.35;;
53835;SDS011;39737;43.334;21.936;2022-12-17T01:00:20;53.83;;;24.15;;
53835;SDS011;39737;43.334;21.936;2022-12-17T01:03:44;37.13;;;15.90;;
53835;SDS011;39737;43.334;21.936;2022-12-17T01:06:48;46.65;;;21.73;;
53835;SDS011;39737;43.334;21.936;2022-12-17T01:09:55;22.92;;;11.82;;
53835;SDS011;39737;43.334;21.936;2022-12-17T01:12:59;54.08;;;22.40;;
53835;SDS011;39737;43.334;21.936;2022-12-17T01:16:04;41.70;;;17.77;;
53835;SDS011;39737;43.334;21.936;2022-12-17T01:19:09;49.95;;;19.88;;
53835;SDS011;39737;43.334;21.936;2022-12-17T01:22:13;92.75;;;38.08;;
53835;SDS011;39737;43.334;21.936;2022-12-17T01:25:18;67.05;;;30.50;;
53835;SDS011;39737;43.334;21.936;2022-12-17T01:28:23;69.20;;;30.10;;
53835;SDS011;39737;43.334;21.936;2022-12-17T01:31:27;24.38;;;12.07;;
53835;SDS011;39737;43.334;21.936;2022-12-17T01:34:34;44.15;;;22.20;;
53835;SDS011;39737;43.334;21.936;2022-12-17T01:37:39;47.75;;;22.92;;
53835;SDS011;39737;43.334;21.936;2022-12-17T01:40:43;60.60;;;27.60;;
53835;SDS011;39737;43.334;21.936;2022-12-17T01:43:48;49.22;;;24.92;;
53835;SDS011;39737;43.334;21.936;2022-12-17T01:46:53;35.22;;;16.15;;
53835;SDS011;39737;43.334;21.936;2022-12-17T01:49:58;79.25;;;32.83;;
53835;SDS011;39737;43.334;21.936;2022-12-17T01:53:03;32.97;;;13.95;;
53835;SDS011;39737;43.334;21.936;2022-12-17T01:56:09;54.70;;;25.20;;
53835;SDS011;39737;43.334;21.936;2022-12-17T01:59:14;50.08;;;23.95;;
53835;SDS011;39737;43.334;21.936;2022-12-17T02:02:23;10.55;;;4.15;;
53835;SDS011;39737;43.334;21.936;2022-12-17T02:05:33;42.20;;;17.80;;
53835;SDS011;39737;43.334;21.936;2022-12-17T02:08:53;43.03;;;19.42;;
53835;SDS011;39737;43.334;21.936;2022-12-17T02:12:05;45.63;;;19.63;;
53835;SDS011;39737;43.334;21.936;2022-12-17T02:15:12;9.20;;;6.18;;
53835;SDS011;39737;43.334;21.936;2022-12-17T02:18:35;32.95;;;14.95;;
53835;SDS011;39737;43.334;21.936;2022-12-17T02:21:41;8.20;;;4.55;;
53835;SDS011;39737;43.334;21.936;2022-12-17T02:24:57;18.15;;;9.75;;
53835;SDS011;39737;43.334;21.936;2022-12-17T02:28:05;13.20;;;7.15;;
53835;SDS011;39737;43.334;21.936;2022-12-17T02:31:11;1.60;;;1.48;;
53835;SDS011;39737;43.334;21.936;2022-12-17T02:34:17;18.38;;;9.20;;
53835;SDS011;39737;43.334;21.936;2022-12-17T02:37:21;1.20;;;1.13;;
53835;SDS011;39737;43.334;21.936;2022-12-17T02:40:26;10.82;;;5.85;;
53835;SDS011;39737;43.334;21.936;2022-12-17T02:43:31;4.28;;;2.53;;
53835;SDS011;39737;43.334;21.936;2022-12-17T02:46:37;8.23;;;4.50;;
53835;SDS011;39737;43.334;21.936;2022-12-17T02:50:03;3.60;;;1.65;;
53835;SDS011;39737;43.334;21.936;2022-12-17T02:53:08;6.57;;;4.07;;
53835;SDS011;39737;43.334;21.936;2022-12-17T02:56:13;14.07;;;5.82;;
53835;SDS011;39737;43.334;21.936;2022-12-17T02:59:37;5.10;;;1.88;;
53835;SDS011;39737;43.334;21.936;2022-12-17T03:02:42;2.47;;;1.95;;
53835;SDS011;39737;43.334;21.936;2022-12-17T03:05:47;7.82;;;3.72;;
53835;SDS011;39737;43.334;21.936;2022-12-17T03:08:51;2.88;;;1.50;;
53835;SDS011;39737;43.334;21.936;2022-12-17T03:11:56;4.72;;;3.10;;
53835;SDS011;39737;43.334;21.936;2022-12-17T03:15:00;4.47;;;1.85;;
53835;SDS011;39737;43.334;21.936;2022-12-17T03:18:04;7.75;;;3.05;;
53835;SDS011;39737;43.334;21.936;2022-12-17T03:21:10;4.25;;;2.90;;
53835;SDS011;39737;43.334;21.936;2022-12-17T03:24:19;5.18;;;2.83;;
53835;SDS011;39737;43.334;21.936;2022-12-17T03:27:24;6.00;;;4.20;;
53835;SDS011;39737;43.334;21.936;2022-12-17T03:30:28;8.52;;;3.58;;
53835;SDS011;39737;43.334;21.936;2022-12-17T03:33:34;6.13;;;3.17;;
53835;SDS011;39737;43.334;21.936;2022-12-17T03:36:39;5.30;;;3.03;;
53835;SDS011;39737;43.334;21.936;2022-12-17T03:39:43;11.77;;;3.17;;
53835;SDS011;39737;43.334;21.936;2022-12-17T03:42:50;2.83;;;1.77;;
53835;SDS011;39737;43.334;21.936;2022-12-17T03:45:55;9.40;;;3.83;;
53835;SDS011;39737;43.334;21.936;2022-12-17T03:49:00;5.28;;;2.72;;
53835;SDS011;39737;43.334;21.936;2022-12-17T03:52:04;13.27;;;4.07;;
53835;SDS011;39737;43.334;21.936;2022-12-17T03:55:09;12.73;;;5.75;;
53835;SDS011;39737;43.334;21.936;2022-12-17T03:58:13;12.00;;;6.68;;
53835;SDS011;39737;43.334;21.936;2022-12-17T04:01:19;19.73;;;8.88;;
53835;SDS011;39737;43.334;21.936;2022-12-17T04:04:24;12.85;;;7.20;;
53835;SDS011;39737;43.334;21.936;2022-12-17T04:07:28;3.60;;;1.95;;
53835;SDS011;39737;43.334;21.936;2022-12-17T04:10:32;15.68;;;6.70;;
53835;SDS011;39737;43.334;21.936;2022-12-17T04:13:38;9.85;;;5.32;;
53835;SDS011;39737;43.334;21.936;2022-12-17T04:16:47;12.65;;;6.25;;
53835;SDS011;39737;43.334;21.936;2022-12-17T04:19:51;8.15;;;4.93;;
53835;SDS011;39737;43.334;21.936;2022-12-17T04:22:57;8.80;;;5.00;;
53835;SDS011;39737;43.334;21.936;2022-12-17T04:26:01;9.63;;;4.78;;
53835;SDS011;39737;43.334;21.936;2022-12-17T04:29:05;6.22;;;4.20;;
53835;SDS011;39737;43.334;21.936;2022-12-17T04:32:10;9.43;;;4.10;;
53835;SDS011;39737;43.334;21.936;2022-12-17T04:35:20;12.38;;;4.88;;
53835;SDS011;39737;43.334;21.936;2022-12-17T04:38:25;9.85;;;5.53;;
53835;SDS011;39737;43.334;21.936;2022-12-17T04:41:30;10.10;;;5.20;;
53835;SDS011;39737;43.334;21.936;2022-12-17T04:44:34;12.45;;;5.00;;
53835;SDS011;39737;43.334;21.936;2022-12-17T04:47:39;9.30;;;4.47;;
53835;SDS011;39737;43.334;21.936;2022-12-17T04:50:43;12.00;;;4.88;;
53835;SDS011;39737;43.334;21.936;2022-12-17T04:53:48;8.70;;;5.07;;
53835;SDS011;39737;43.334;21.936;2022-12-17T04:56:52;8.60;;;4.88;;
53835;SDS011;39737;43.334;21.936;2022-12-17T04:59:57;8.70;;;3.63;;
53835;SDS011;39737;43.334;21.936;2022-12-17T05:03:05;5.60;;;3.75;;
53835;SDS011;39737;43.334;21.936;2022-12-17T05:06:10;6.60;;;4.10;;
53835;SDS011;39737;43.334;21.936;2022-12-17T05:09:15;4.57;;;2.40;;
53835;SDS011;39737;43.334;21.936;2022-12-17T05:12:19;8.98;;;4.72;;
53835;SDS011;39737;43.334;21.936;2022-12-17T05:15:24;21.98;;;8.18;;
53835;SDS011;39737;43.334;21.936;2022-12-17T05:18:37;18.05;;;8.48;;
53835;SDS011;39737;43.334;21.936;2022-12-17T05:21:42;27.83;;;14.13;;
53835;SDS011;39737;43.334;21.936;2022-12-17T05:24:46;18.42;;;9.00;;
53835;SDS011;39737;43.334;21.936;2022-12-17T05:27:51;19.98;;;8.82;;
53835;SDS011;39737;43.334;21.936;2022-12-17T05:30:55;13.68;;;6.18;;
53835;SDS011;39737;43.334;21.936;2022-12-17T05:34:00;12.20;;;5.70;;
53835;SDS011;39737;43.334;21.936;2022-12-17T05:37:04;8.68;;;4.50;;
53835;SDS011;39737;43.334;21.936;2022-12-17T05:40:09;7.05;;;3.25;;
53835;SDS011;39737;43.334;21.936;2022-12-17T05:43:14;11.10;;;4.90;;
53835;SDS011;39737;43.334;21.936;2022-12-17T05:46:19;9.50;;;4.82;;
53835;SDS011;39737;43.334;21.936;2022-12-17T05:49:24;4.18;;;2.42;;
53835;SDS011;39737;43.334;21.936;2022-12-17T05:52:29;8.18;;;4.03;;
53835;SDS011;39737;43.334;21.936;2022-12-17T05:55:33;3.38;;;2.17;;
53835;SDS011;39737;43.334;21.936;2022-12-17T05:58:38;8.77;;;4.20;;
53835;SDS011;39737;43.334;21.936;2022-12-17T06:01:42;6.70;;;3.40;;
53835;SDS011;39737;43.334;21.936;2022-12-17T06:04:47;7.50;;;3.88;;
53835;SDS011;39737;43.334;21.936;2022-12-17T06:08:00;7.35;;;3.80;;
53835;SDS011;39737;43.334;21.936;2022-12-17T06:11:05;6.00;;;4.05;;
53835;SDS011;39737;43.334;21.936;2022-12-17T06:14:09;64.47;;;23.75;;
53835;SDS011;39737;43.334;21.936;2022-12-17T06:17:14;22.20;;;12.85;;
53835;SDS011;39737;43.334;21.936;2022-12-17T06:20:19;108.35;;;47.92;;
53835;SDS011;39737;43.334;21.936;2022-12-17T06:23:24;39.28;;;19.42;;
53835;SDS011;39737;43.334;21.936;2022-12-17T06:26:29;86.95;;;32.90;;
53835;SDS011;39737;43.334;21.936;2022-12-17T06:29:41;18.67;;;10.27;;
53835;SDS011;39737;43.334;21.936;2022-12-17T06:32:46;70.70;;;28.42;;
53835;SDS011;39737;43.334;21.936;2022-12-17T06:35:51;26.70;;;13.85;;
53835;SDS011;39737;43.334;21.936;2022-12-17T06:39:02;24.23;;;11.32;;
53835;SDS011;39737;43.334;21.936;2022-12-17T06:42:07;12.90;;;6.60;;
53835;SDS011;39737;43.334;21.936;2022-12-17T06:45:11;23.63;;;12.73;;
53835;SDS011;39737;43.334;21.936;2022-12-17T06:48:16;18.08;;;10.32;;
53835;SDS011;39737;43.334;21.936;2022-12-17T06:51:21;1.65;;;1.40;;
53835;SDS011;39737;43.334;21.936;2022-12-17T06:54:26;1.60;;;1.50;;
53835;SDS011;39737;43.334;21.936;2022-12-17T06:57:30;12.82;;;4.95;;
53835;SDS011;39737;43.334;21.936;2022-12-17T07:00:35;9.60;;;6.03;;
53835;SDS011;39737;43.334;21.936;2022-12-17T07:03:40;10.02;;;4.93;;
53835;SDS011;39737;43.334;21.936;2022-12-17T07:06:45;4.18;;;3.03;;
53835;SDS011;39737;43.334;21.936;2022-12-17T07:09:50;1.65;;;1.25;;
53835;SDS011;39737;43.334;21.936;2022-12-17T07:13:03;3.70;;;2.63;;
53835;SDS011;39737;43.334;21.936;2022-12-17T07:16:07;1.27;;;0.70;;
53835;SDS011;39737;43.334;21.936;2022-12-17T07:19:12;5.40;;;3.03;;
53835;SDS011;39737;43.334;21.936;2022-12-17T07:22:20;0.60;;;0.60;;
53835;SDS011;39737;43.334;21.936;2022-12-17T07:25:25;33.45;;;13.50;;
53835;SDS011;39737;43.334;21.936;2022-12-17T07:28:31;7.70;;;4.53;;
53835;SDS011;39737;43.334;21.936;2022-12-17T07:31:36;7.75;;;4.22;;
53835;SDS011;39737;43.334;21.936;2022-12-17T07:34:41;14.30;;;6.55;;
53835;SDS011;39737;43.334;21.936;2022-12-17T07:37:46;19.40;;;8.73;;
53835;SDS011;39737;43.334;21.936;2022-12-17T07:40:51;10.73;;;6.90;;
53835;SDS011;39737;43.334;21.936;2022-12-17T07:43:55;8.75;;;4.07;;
53835;SDS011;39737;43.334;21.936;2022-12-17T07:46:59;6.95;;;3.30;;
53835;SDS011;39737;43.334;21.936;2022-12-17T07:50:04;8.38;;;3.53;;
53835;SDS011;39737;43.334;21.936;2022-12-17T07:53:09;5.20;;;2.83;;
53835;SDS011;39737;43.334;21.936;2022-12-17T07:56:13;25.15;;;11.02;;
53835;SDS011;39737;43.334;21.936;2022-12-17T07:59:18;5.07;;;3.78;;
53835;SDS011;39737;43.334;21.936;2022-12-17T08:02:22;136.95;;;50.22;;
53835;SDS011;39737;43.334;21.936;2022-12-17T08:05:27;239.90;;;98.85;;
53835;SDS011;39737;43.334;21.936;2022-12-17T08:08:32;155.75;;;66.47;;
53835;SDS011;39737;43.334;21.936;2022-12-17T08:11:36;67.30;;;31.30;;
53835;SDS011;39737;43.334;21.936;2022-12-17T08:14:41;92.88;;;42.92;;
53835;SDS011;39737;43.334;21.936;2022-12-17T08:17:45;132.75;;;55.22;;
53835;SDS011;39737;43.334;21.936;2022-12-17T08:20:57;341.63;;;120.65;;
53835;SDS011;39737;43.334;21.936;2022-12-17T08:24:02;176.63;;;70.93;;
53835;SDS011;39737;43.334;21.936;2022-12-17T08:27:07;73.82;;;37.65;;
53835;SDS011;39737;43.334;21.936;2022-12-17T08:30:11;30.67;;;13.05;;
53835;SDS011;39737;43.334;21.936;2022-12-17T08:33:15;83.65;;;40.72;;
53835;SDS011;39737;43.334;21.936;2022-12-17T08:36:21;101.88;;;49.45;;
53835;SDS011;39737;43.334;21.936;2022-12-17T08:39:25;97.60;;;49.55;;
53835;SDS011;39737;43.334;21.936;2022-12-17T08:42:30;112.68;;;52.60;;
53835;SDS011;39737;43.334;21.936;2022-12-17T08:45:35;111.78;;;58.28;;
53835;SDS011;39737;43.334;21.936;2022-12-17T08:48:39;121.75;;;58.88;;
53835;SDS011;39737;43.334;21.936;2022-12-17T08:51:44;109.70;;;48.47;;
53835;SDS011;39737;43.334;21.936;2022-12-17T08:54:48;66.40;;;31.35;;
53835;SDS011;39737;43.334;21.936;2022-12-17T08:57:56;45.38;;;22.10;;
53835;SDS011;39737;43.334;21.936;2022-12-17T09:01:01;21.50;;;10.60;;
53835;SDS011;39737;43.334;21.936;2022-12-17T09:04:06;22.90;;;11.40;;
53835;SDS011;39737;43.334;21.936;2022-12-17T09:07:11;26.45;;;10.85;;
53835;SDS011;39737;43.334;21.936;2022-12-17T09:10:15;11.00;;;6.70;;
53835;SDS011;39737;43.334;21.936;2022-12-17T09:13:20;36.92;;;17.77;;
53835;SDS011;39737;43.334;21.936;2022-12-17T09:16:24;34.53;;;17.02;;
53835;SDS011;39737;43.334;21.936;2022-12-17T09:19:29;36.88;;;18.83;;
53835;SDS011;39737;43.334;21.936;2022-12-17T09:22:34;27.30;;;15.60;;
53835;SDS011;39737;43.334;21.936;2022-12-17T09:25:39;35.30;;;15.55;;
53835;SDS011;39737;43.334;21.936;2022-12-17T09:28:43;33.33;;;17.60;;
53835;SDS011;39737;43.334;21.936;2022-12-17T09:31:48;49.25;;;23.02;;
53835;SDS011;39737;43.334;21.936;2022-12-17T09:34:52;41.42;;;19.52;;
53835;SDS011;39737;43.334;21.936;2022-12-17T09:37:57;41.90;;;19.02;;
53835;SDS011;39737;43.334;21.936;2022-12-17T09:41:46;45.08;;;20.67;;
53835;SDS011;39737;43.334;21.936;2022-12-17T09:48:14;34.83;;;16.77;;
53835;SDS011;39737;43.334;21.936;2022-12-17T09:51:24;39.22;;;18.80;;
53835;SDS011;39737;43.334;21.936;2022-12-17T09:54:34;34.83;;;17.92;;
53835;SDS011;39737;43.334;21.936;2022-12-17T09:57:46;34.13;;;16.20;;
53835;SDS011;39737;43.334;21.936;2022-12-17T10:00:51;21.50;;;10.13;;
53835;SDS011;39737;43.334;21.936;2022-12-17T10:04:29;8.25;;;5.28;;
53835;SDS011;39737;43.334;21.936;2022-12-17T10:07:35;6.13;;;4.45;;
53835;SDS011;39737;43.334;21.936;2022-12-17T10:10:43;3.33;;;2.83;;
53835;SDS011;39737;43.334;21.936;2022-12-17T10:13:48;9.13;;;4.15;;
53835;SDS011;39737;43.334;21.936;2022-12-17T10:16:52;8.07;;;5.43;;
53835;SDS011;39737;43.334;21.936;2022-12-17T10:19:56;6.38;;;3.65;;
53835;SDS011;39737;43.334;21.936;2022-12-17T10:23:02;7.85;;;4.47;;
53835;SDS011;39737;43.334;21.936;2022-12-17T10:26:07;10.20;;;6.15;;
53835;SDS011;39737;43.334;21.936;2022-12-17T10:35:34;7.30;;;4.63;;
53835;SDS011;39737;43.334;21.936;2022-12-17T10:38:39;17.02;;;8.48;;
53835;SDS011;39737;43.334;21.936;2022-12-17T10:41:44;43.55;;;21.45;;
53835;SDS011;39737;43.334;21.936;2022-12-17T10:44:48;58.50;;;26.60;;
53835;SDS011;39737;43.334;21.936;2022-12-17T10:47:53;35.42;;;19.42;;
53835;SDS011;39737;43.334;21.936;2022-12-17T10:50:58;20.13;;;7.43;;
53835;SDS011;39737;43.334;21.936;2022-12-17T10:54:16;42.63;;;21.77;;
53835;SDS011;39737;43.334;21.936;2022-12-17T10:57:35;30.35;;;14.38;;
53835;SDS011;39737;43.334;21.936;2022-12-17T11:00:40;15.75;;;7.32;;
53835;SDS011;39737;43.334;21.936;2022-12-17T11:03:54;13.73;;;7.80;;
53835;SDS011;39737;43.334;21.936;2022-12-17T11:06:58;17.35;;;7.65;;
53835;SDS011;39737;43.334;21.936;2022-12-17T11:10:04;6.95;;;4.72;;
53835;SDS011;39737;43.334;21.936;2022-12-17T11:16:28;9.20;;;6.43;;
53835;SDS011;39737;43.334;21.936;2022-12-17T11:19:45;13.18;;;7.15;;
53835;SDS011;39737;43.334;21.936;2022-12-17T11:22:54;1.70;;;0.98;;
53835;SDS011;39737;43.334;21.936;2022-12-17T11:26:07;10.80;;;5.95;;
53835;SDS011;39737;43.334;21.936;2022-12-17T11:29:13;19.02;;;9.57;;
53835;SDS011;39737;43.334;21.936;2022-12-17T11:38:55;12.68;;;6.97;;
53835;SDS011;39737;43.334;21.936;2022-12-17T11:42:13;1.00;;;0.98;;
53835;SDS011;39737;43.334;21.936;2022-12-17T11:51:40;1.63;;;1.52;;
53835;SDS011;39737;43.334;21.936;2022-12-17T11:54:56;4.95;;;3.65;;
53835;SDS011;39737;43.334;21.936;2022-12-17T11:58:04;6.93;;;4.78;;
53835;SDS011;39737;43.334;21.936;2022-12-17T12:01:13;2.17;;;1.88;;
53835;SDS011;39737;43.334;21.936;2022-12-17T12:07:43;28.35;;;12.25;;
53835;SDS011;39737;43.334;21.936;2022-12-17T12:14:22;1.42;;;1.17;;
53835;SDS011;39737;43.334;21.936;2022-12-17T12:17:40;1.35;;;1.23;;
53835;SDS011;39737;43.334;21.936;2022-12-17T12:24:10;2.83;;;1.67;;
53835;SDS011;39737;43.334;21.936;2022-12-17T12:34:03;8.88;;;5.45;;
53835;SDS011;39737;43.334;21.936;2022-12-17T12:37:12;5.10;;;3.20;;
53835;SDS011;39737;43.334;21.936;2022-12-17T12:43:26;24.27;;;12.45;;
53835;SDS011;39737;43.334;21.936;2022-12-17T12:46:37;7.05;;;3.50;;
53835;SDS011;39737;43.334;21.936;2022-12-17T12:49:44;11.70;;;7.20;;
53835;SDS011;39737;43.334;21.936;2022-12-17T12:52:53;26.35;;;12.55;;
53835;SDS011;39737;43.334;21.936;2022-12-17T12:56:24;7.63;;;3.60;;
53835;SDS011;39737;43.334;21.936;2022-12-17T12:59:32;2.75;;;2.05;;
53835;SDS011;39737;43.334;21.936;2022-12-17T13:02:37;23.52;;;12.20;;
53835;SDS011;39737;43.334;21.936;2022-12-17T13:05:42;5.18;;;3.65;;
53835;SDS011;39737;43.334;21.936;2022-12-17T13:08:29;3.67;;;3.35;;
53835;SDS011;39737;43.334;21.936;2022-12-17T13:11:28;2.35;;;2.15;;
53835;SDS011;39737;43.334;21.936;2022-12-17T13:14:18;3.03;;;2.83;;
53835;SDS011;39737;43.334;21.936;2022-12-17T13:17:07;22.98;;;;;
53835;SDS011;39737;43.334;21.936;2022-12-17T13:20:20;2.30;;;1.77;;
53835;SDS011;39737;43.334;21.936;2022-12-17T13:28:59;2.30;;;1.98;;
53835;SDS011;39737;43.334;21.936;2022-12-17T13:35:07;6.72;;;4.35;;
53835;SDS011;39737;43.334;21.936;2022-12-17T13:41:10;14.38;;;5.15;;
53835;SDS011;39737;43.334;21.936;2022-12-17T13:46:58;29.60;;;16.10;;
53835;SDS011;39737;43.334;21.936;2022-12-17T13:49:48;5.15;;;4.13;;
53835;SDS011;39737;43.334;21.936;2022-12-17T13:52:55;2.13;;;1.92;;
53835;SDS011;39737;43.334;21.936;2022-12-17T13:55:48;85.55;;;37.88;;
53835;SDS011;39737;43.334;21.936;2022-12-17T13:58:37;19.42;;;10.30;;
53835;SDS011;39737;43.334;21.936;2022-12-17T14:01:24;16.23;;;8.90;;
53835;SDS011;39737;43.334;21.936;2022-12-17T14:04:20;28.20;;;14.93;;
53835;SDS011;39737;43.334;21.936;2022-12-17T14:07:07;2.92;;;2.05;;
53835;SDS011;39737;43.334;21.936;2022-12-17T14:09:53;19.75;;;9.07;;
53835;SDS011;39737;43.334;21.936;2022-12-17T14:12:39;2.88;;;1.80;;
53835;SDS011;39737;43.334;21.936;2022-12-17T14:15:28;3.88;;;2.53;;
53835;SDS011;39737;43.334;21.936;2022-12-17T14:18:17;2.22;;;2.05;;
53835;SDS011;39737;43.334;21.936;2022-12-17T14:21:04;24.50;;;12.68;;
53835;SDS011;39737;43.334;21.936;2022-12-17T14:23:53;10.05;;;6.72;;
53835;SDS011;39737;43.334;21.936;2022-12-17T14:27:00;14.60;;;4.10;;
53835;SDS011;39737;43.334;21.936;2022-12-17T14:29:48;20.35;;;11.75;;
53835;SDS011;39737;43.334;21.936;2022-12-17T14:32:35;1.73;;;1.63;;
53835;SDS011;39737;43.334;21.936;2022-12-17T14:35:32;14.15;;;7.45;;
53835;SDS011;39737;43.334;21.936;2022-12-17T14:38:19;14.75;;;7.63;;
53835;SDS011;39737;43.334;21.936;2022-12-17T14:41:26;4.00;;;3.20;;
53835;SDS011;39737;43.334;21.936;2022-12-17T14:44:31;4.28;;;3.45;;
53835;SDS011;39737;43.334;21.936;2022-12-17T14:53:04;3.45;;;2.58;;
53835;SDS011;39737;43.334;21.936;2022-12-17T14:56:16;12.52;;;6.60;;
53835;SDS011;39737;43.334;21.936;2022-12-17T15:04:55;31.77;;;16.83;;
53835;SDS011;39737;43.334;21.936;2022-12-17T15:07:42;8.68;;;6.55;;
53835;SDS011;39737;43.334;21.936;2022-12-17T15:10:29;4.32;;;3.90;;
53835;SDS011;39737;43.334;21.936;2022-12-17T15:13:15;120.50;;;35.00;;
53835;SDS011;39737;43.334;21.936;2022-12-17T15:16:01;48.78;;;21.90;;
53835;SDS011;39737;43.334;21.936;2022-12-17T15:18:48;2.80;;;2.10;;
53835;SDS011;39737;43.334;21.936;2022-12-17T15:21:34;36.92;;;10.10;;
53835;SDS011;39737;43.334;21.936;2022-12-17T15:24:23;4.45;;;3.45;;
53835;SDS011;39737;43.334;21.936;2022-12-17T15:27:13;3.63;;;3.15;;
53835;SDS011;39737;43.334;21.936;2022-12-17T15:29:59;1.98;;;1.88;;
53835;SDS011;39737;43.334;21.936;2022-12-17T15:32:47;22.27;;;13.02;;
53835;SDS011;39737;43.334;21.936;2022-12-17T15:35:51;4.07;;;2.78;;
53835;SDS011;39737;43.334;21.936;2022-12-17T15:38:50;3.83;;;2.67;;
53835;SDS011;39737;43.334;21.936;2022-12-17T15:41:46;3.50;;;2.85;;
53835;SDS011;39737;43.334;21.936;2022-12-17T15:44:51;12.50;;;3.40;;
53835;SDS011;39737;43.334;21.936;2022-12-17T15:47:37;5.45;;;4.57;;
53835;SDS011;39737;43.334;21.936;2022-12-17T15:50:37;5.35;;;3.67;;
53835;SDS011;39737;43.334;21.936;2022-12-17T15:53:23;4.03;;;2.58;;
53835;SDS011;39737;43.334;21.936;2022-12-17T15:56:23;17.95;;;10.18;;
53835;SDS011;39737;43.334;21.936;2022-12-17T15:59:09;46.55;;;25.08;;
53835;SDS011;39737;43.334;21.936;2022-12-17T16:01:56;5.65;;;4.43;;
53835;SDS011;39737;43.334;21.936;2022-12-17T16:04:42;12.43;;;5.57;;
53835;SDS011;39737;43.334;21.936;2022-12-17T16:07:28;9.20;;;5.75;;
53835;SDS011;39737;43.334;21.936;2022-12-17T16:10:14;8.35;;;3.15;;
53835;SDS011;39737;43.334;21.936;2022-12-17T16:13:01;3.25;;;2.85;;
53835;SDS011;39737;43.334;21.936;2022-12-17T16:15:56;4.45;;;3.65;;
53835;SDS011;39737;43.334;21.936;2022-12-17T16:18:48;7.05;;;4.97;;
53835;SDS011;39737;43.334;21.936;2022-12-17T16:21:34;15.80;;;9.35;;
53835;SDS011;39737;43.334;21.936;2022-12-17T16:24:31;25.92;;;13.18;;
53835;SDS011;39737;43.334;21.936;2022-12-17T16:27:18;8.73;;;5.22;;
53835;SDS011;39737;43.334;21.936;2022-12-17T16:30:04;5.70;;;4.22;;
53835;SDS011;39737;43.334;21.936;2022-12-17T16:32:51;78.05;;;30.45;;
53835;SDS011;39737;43.334;21.936;2022-12-17T16:35:37;18.65;;;7.43;;
53835;SDS011;39737;43.334;21.936;2022-12-17T16:38:23;5.28;;;3.30;;
53835;SDS011;39737;43.334;21.936;2022-12-17T16:41:09;13.05;;;6.72;;
53835;SDS011;39737;43.334;21.936;2022-12-17T16:43:56;21.30;;;11.00;;
53835;SDS011;39737;43.334;21.936;2022-12-17T16:46:42;3.55;;;2.25;;
53835;SDS011;39737;43.334;21.936;2022-12-17T16:49:29;7.35;;;3.28;;
53835;SDS011;39737;43.334;21.936;2022-12-17T16:52:15;10.05;;;3.42;;
53835;SDS011;39737;43.334;21.936;2022-12-17T16:55:01;3.72;;;3.42;;
53835;SDS011;39737;43.334;21.936;2022-12-17T16:57:47;8.57;;;3.80;;
53835;SDS011;39737;43.334;21.936;2022-12-17T17:00:34;6.65;;;5.97;;
53835;SDS011;39737;43.334;21.936;2022-12-17T17:03:20;6.22;;;4.80;;
53835;SDS011;39737;43.334;21.936;2022-12-17T17:06:07;5.22;;;4.75;;
53835;SDS011;39737;43.334;21.936;2022-12-17T17:08:53;4.03;;;3.70;;
53835;SDS011;39737;43.334;21.936;2022-12-17T17:11:40;13.35;;;5.03;;
53835;SDS011;39737;43.334;21.936;2022-12-17T17:14:29;5.93;;;4.45;;
53835;SDS011;39737;43.334;21.936;2022-12-17T17:17:15;17.85;;;3.72;;
53835;SDS011;39737;43.334;21.936;2022-12-17T17:20:01;4.75;;;3.47;;
53835;SDS011;39737;43.334;21.936;2022-12-17T17:23:06;2.92;;;2.70;;
53835;SDS011;39737;43.334;21.936;2022-12-17T17:25:53;9.70;;;6.95;;
53835;SDS011;39737;43.334;21.936;2022-12-17T17:28:46;2.38;;;2.17;;
53835;SDS011;39737;43.334;21.936;2022-12-17T17:31:33;5.40;;;3.90;;
53835;SDS011;39737;43.334;21.936;2022-12-17T17:34:39;5.90;;;4.18;;
53835;SDS011;39737;43.334;21.936;2022-12-17T17:37:28;2.05;;;1.85;;
53835;SDS011;39737;43.334;21.936;2022-12-17T17:40:33;4.55;;;4.15;;
53835;SDS011;39737;43.334;21.936;2022-12-17T17:43:22;5.95;;;3.90;;
53835;SDS011;39737;43.334;21.936;2022-12-17T17:46:13;49.80;;;21.67;;
53835;SDS011;39737;43.334;21.936;2022-12-17T17:49:00;4.07;;;3.75;;
53835;SDS011;39737;43.334;21.936;2022-12-17T17:51:46;2.80;;;2.60;;
53835;SDS011;39737;43.334;21.936;2022-12-17T17:54:53;2.72;;;2.33;;
53835;SDS011;39737;43.334;21.936;2022-12-17T17:57:39;16.55;;;5.25;;
53835;SDS011;39737;43.334;21.936;2022-12-17T18:00:27;11.43;;;5.45;;
53835;SDS011;39737;43.334;21.936;2022-12-17T18:03:13;7.50;;;6.22;;
53835;SDS011;39737;43.334;21.936;2022-12-17T18:06:00;5.32;;;4.63;;
53835;SDS011;39737;43.334;21.936;2022-12-17T18:08:48;86.95;;;30.00;;
53835;SDS011;39737;43.334;21.936;2022-12-17T18:11:35;10.98;;;7.95;;
53835;SDS011;39737;43.334;21.936;2022-12-17T18:14:22;4.10;;;3.70;;
53835;SDS011;39737;43.334;21.936;2022-12-17T18:17:08;11.13;;;7.70;;
53835;SDS011;39737;43.334;21.936;2022-12-17T18:19:56;9.63;;;6.13;;
53835;SDS011;39737;43.334;21.936;2022-12-17T18:22:43;2.00;;;1.90;;
53835;SDS011;39737;43.334;21.936;2022-12-17T18:25:33;15.85;;;9.05;;
53835;SDS011;39737;43.334;21.936;2022-12-17T18:28:22;12.70;;;6.47;;
53835;SDS011;39737;43.334;21.936;2022-12-17T18:31:29;5.10;;;4.30;;
53835;SDS011;39737;43.334;21.936;2022-12-17T18:34:16;5.97;;;3.35;;
53835;SDS011;39737;43.334;21.936;2022-12-17T18:37:04;7.70;;;4.50;;
53835;SDS011;39737;43.334;21.936;2022-12-17T18:39:52;7.70;;;5.32;;
53835;SDS011;39737;43.334;21.936;2022-12-17T18:42:59;11.18;;;7.85;;
53835;SDS011;39737;43.334;21.936;2022-12-17T18:46:04;27.65;;;9.70;;
53835;SDS011;39737;43.334;21.936;2022-12-17T18:49:12;12.18;;;7.60;;
53835;SDS011;39737;43.334;21.936;2022-12-17T18:51:59;4.88;;;3.58;;
53835;SDS011;39737;43.334;21.936;2022-12-17T18:54:45;4.93;;;4.50;;
53835;SDS011;39737;43.334;21.936;2022-12-17T18:57:31;9.63;;;7.15;;